Terminal Aerodrome Forecast
Issued by NWS Jackson, KY

Home | Current Version | Previous Version | Text Only | Print | Product List | Glossary On
Versions: 1 2 3 4 5 6 7 8 9 10 11 12 13 14 15 16
000
FTUS43 KJKL 211720
TAFLOZ
TAF
KLOZ 211720Z 2118/2218 00000KT P6SM VCTS SCT045CB SCT100
      TEMPO 2118/2122 5SM TSRA BKN030CB
     FM212300 VRB02KT 6SM BR SCT035 BKN120
     FM221200 20005KT P6SM VCSH SCT030 BKN080=

USA.gov is the U.S. government's official web portal to all federal, state and local government web resources and services.